资源文件 Rogue.One.A.Star.Wars.Story.2016.Trailer.A.DCPRip.2k.DUB.mkv 332.26 MB

资源文件 Rogue.One.A.Star.Wars.Story.2016.Trailer.D.DCPRip.2k.DUB.mkv 513.66 MB

资源文件 Rogue.One.A.Star.Wars.Story.2016.Trailer.F.DCPRip.2k.DUB.mkv 581.24 MB

文件大小 ( 1.39 GB )

资源名称 Rogue.One.A.Star.Wars.Story.2016.Trailers.DCPRip.2k.DUB

磁力链 magnet:?xt=urn:btih:584C1C216292E19D19291D96547EE335DA1FD523


手机下载请扫二维码

立即下载 迅雷云播 迅雷看看 小米路由

如果您想下载星球大战外传:侠盗一号 / Rogue One: A Star Wars Story / 侠盗一号 / 星战外传1 / 侠盗一号:星球大战外传 / 星球大战:侠盗一号 / 罗格一号 / StarWarsAnthology:RogueOne / StarWars:RogueOne / RogueOne的BT种子文件或数据,请使用迅雷、QQ旋风、uTorrent等BT工具下载。

If you want to download 星球大战外传:侠盗一号 / Rogue One: A Star Wars Story / 侠盗一号 / 星战外传1 / 侠盗一号:星球大战外传 / 星球大战:侠盗一号 / 罗格一号 / StarWarsAnthology:RogueOne / StarWars:RogueOne / RogueOne files,please use the BT tools such as thunderbolt, QQ whirlwind or uTorrent to download.

下载地址 文件名 文件大小 发布日期
星球大战外传:侠盗一号/Rogue.One.2016.BDRip.720p.TS.mkv 6.92 GB 2017-10-27
星球大战外传:侠盗一号/Rogue One_ A Star Wars Story (2016).[SN].mp4 5.74 GB 2017-10-24
星球大战外传:侠盗一号/Rogue.One.2016.Lic.BDRip.1080p.Rus.Kaz.mkv 15.24 GB 2017-10-24
星球大战外传:侠盗一号/Rogue.One.2016.BDRip.x264.BGaudio-REFLUX 779.37 MB 2017-10-20
星球大战外传:侠盗一号/Rogue.One.2016.1080p.BluRay.x264-SPARKS 9.84 GB 2017-10-20
星球大战外传:侠盗一号/星球大战外传:侠盗一号.Rogue.One.2016.1080p.BluRay.x264-中英双字-BT4K 4.84 GB 2017-10-12
星球大战外传:侠盗一号/Rogue.One.2016_HDRip_lv___[scarabey.org].avi 2.12 GB 2017-10-07
星球大战外传:侠盗一号/Rogue One 2016 1080p x265 AC3 ITA AAC 7.1 ENG.mkv 3.40 GB 2017-10-05
星球大战外传:侠盗一号/Rogue.One.2016.576p.BRRip.x264.AAC5.1-OzZY1 2.17 GB 2017-09-24
星球大战外传:侠盗一号/Rogue.One.2016.1080p.3D..Half-SBS.x264.Мастер5.mkv 16.23 GB 2017-09-22
星球大战外传:侠盗一号/Rogue.One.A.Star.Wars.Story.2016.BDRip.1.46Gb.MegaPeer 1.22 GB 2017-09-09
星球大战外传:侠盗一号/Rogue.One.2016.Lic.Local.BDRip.1080p.ExKinoRay.mkv 15.43 GB 2017-09-06
星球大战外传:侠盗一号/Rogue.One.2016.RETAIL.HUN.PAL.DVD9-SNERZ 7.31 GB 2017-09-04
星球大战外传:侠盗一号/Rogue.One.2016.720p_BDRip_lv_[scarabey.org].mkv 5.68 GB 2017-09-04
星球大战外传:侠盗一号/Rogue.One.A.Star.Wars.Story.2016.BRRip.x264.AC3-FRWL.[SN].mkv 1.81 GB 2017-09-02
星球大战外传:侠盗一号/Rogue.one.2016.1080p.bluray.x264.sparks.Dub 2.02 GB 2017-08-30
星球大战外传:侠盗一号/Rogue.One.2016.BRRip.XviD.AC3.SBT 1.52 GB 2017-08-28
星球大战外传:侠盗一号/Rogue.One.2016.1080p.BluRay.H264.AAC-RARBG 2.57 GB 2017-08-25
星球大战外传:侠盗一号/Rogue.One.A.Star.Wars.Story.2016.DUAL.1080p.BluRay.x264-JP.mkv 10.02 GB 2017-08-25
星球大战外传:侠盗一号/Rogue.One.2016.576p.BRRip.x264-DiN 2.52 GB 2017-08-23
星球大战外传:侠盗一号/Rogue.One.2016.Lic.BDREMUX.1080p.ExKinoRay.mkv 37.64 GB 2017-08-23
星球大战外传:侠盗一号/Rogue.One.2016.FRENCH.720p.BluRay.x264-VENUE 5.46 GB 2017-08-22
星球大战外传:侠盗一号/[Cpasbien.club] Rogue.One.2016.FRENCH.BDRip.MP4-EXTREME 741.64 MB 2017-08-19
星球大战外传:侠盗一号/Rogue.One.2016.1080p.3D..Half-SBS.x264.Мастер5.mkv 16.25 GB 2017-08-18
星球大战外传:侠盗一号/Rogue One A Star Wars Story 2016 HDTS x264 AC3-Garmin[SN] 2.25 GB 2017-08-18
星球大战外传:侠盗一号/Rogue.One.2016.D.BDRip.1080p.mkv 13.36 GB 2017-08-17
星球大战外传:侠盗一号/Star.Wars.Rogue.One.2016.Bluray.720p.DTS.x264-JeM 11.04 GB 2017-08-17
星球大战外传:侠盗一号/星球大战外传:侠盗一号.Rogue.One.2016.BD720P.超清中英字幕-迅影网 1.69 GB 2017-08-17
星球大战外传:侠盗一号/Rogue One (2016) BDRip XviD-MAXSPEED 1.37 GB 2017-08-16
星球大战外传:侠盗一号/Rogue.One.2016.BDRip.1080p.qqss44.mkv 10.50 GB 2017-08-15
星球大战外传:侠盗一号/Rogue.One.2016.D.BDRip.1080p.mkv 19.67 GB 2017-08-15
星球大战外传:侠盗一号/Rogue One 2016 1080p BluRay x264 DTS-JYK 3.21 GB 2017-08-14
星球大战外传:侠盗一号/Rogue.One.2016.720p.BrRip.2CH.x265.HEVC-PSA 993.33 MB 2017-08-13
星球大战外传:侠盗一号/Rogue.One_A.Star.Wars.Story.2016.576p.HDRip.AAC.x264.NNMclub.mp4 2.13 GB 2017-08-12
星球大战外传:侠盗一号/Rogue.One.A.Star.Wars.Story.2016.1080p_HEVCCLUB.mkv 10.83 GB 2017-08-12
星球大战外传:侠盗一号/Rogue.One.2016.720p.BluRay.x264-SPARKS 6.61 GB 2017-08-11
星球大战外传:侠盗一号/Rogue.One-A.Star.Wars.Story.2016.HDCAM.AC3.2.0.x264-BDP[SN] 1.86 GB 2017-08-09
星球大战外传:侠盗一号/Rogue.One.2016.BDRip.Kaztorrents.mp4 861.59 MB 2017-08-09
星球大战外传:侠盗一号/Rogue.One(2016)BDRip.1080p.TS.mkv 10.20 GB 2017-08-01
星球大战外传:侠盗一号/Rogue One A Star Wars Story 2016 HD-TS x264-CPG 2.23 GB 2017-08-01
星球大战外传:侠盗一号/Rogue One.2016.BDRip.720p.WazZzuP.mkv 12.24 GB 2017-07-31
星球大战外传:侠盗一号/Rogue One A Star Wars Story 2016 HDTS UN-WATERMARKED NAKRO 2.03 GB 2017-07-31
星球大战外传:侠盗一号/Rogue One 2016 1080p BluRay x264 DTS-JYK 3.38 GB 2017-07-30
星球大战外传:侠盗一号/Изгой-один_Звёздные войны. Истории_Rogue One_A Star Wars Story.2016.BDRemux.H.264.1080p.NNMClub.mkv 36.86 GB 2017-07-30
星球大战外传:侠盗一号/Rogue.One.2016.PL.SUBBED.720p.BRrip.XviD.DD5.1-MAXX 1.95 GB 2017-07-29
星球大战外传:侠盗一号/Rogue.One.2016_BDRip_lv_r5_[scarabey.org].avi 1.45 GB 2017-07-28
星球大战外传:侠盗一号/Rogue.One.2016.720p.BluRay.x264.DTS-WAR 5.79 GB 2017-07-28
星球大战外传:侠盗一号/Rogue.One.2016.SWESUB.720p.BluRay.x264-FiLMANTA 2.30 GB 2017-07-26
星球大战外传:侠盗一号/Rogue.One.2016.1080p.BluRay.DTS.x264.HUN-TERACOD 20.46 GB 2017-07-26
星球大战外传:侠盗一号/Rogue.One.2016.BluRay.720p.DTS.2Audio.x264-CHD.mkv 7.44 GB 2017-07-25
星球大战外传:侠盗一号/Rogue.One.2016.BDRip.1080p.TS.mkv 10.20 GB 2017-07-25
星球大战外传:侠盗一号/Rogue.One.A.Star.Wars.Story.2016.HD-TS.www.mp4d.com 2.80 GB 2017-07-25
星球大战外传:侠盗一号/Rogue.One.2016.1080p.BluRay.x264-SPARKS 9.91 GB 2017-07-23
星球大战外传:侠盗一号/Rogue One.2016.Toriyal.Rutracker 2.80 GB 2017-07-22
星球大战外传:侠盗一号/Rogue.One.2016.BDRip.x264-SPARKS[PRiME] 735.24 MB 2017-07-22
星球大战外传:侠盗一号/Rogue.One.2016.720p.BDRip.LATiNO.ENG.XviD.AC3 4.37 GB 2017-07-22
星球大战外传:侠盗一号/Rogue.One.A.Star.Wars.Story.2016.BDRip.795MB.Dub.MegaPeer 797.10 MB 2017-07-22
星球大战外传:侠盗一号/Rogue.One.A.Star.Wars.Story.2016.HDTS.x264-VAiN[PRiME] 1.50 GB 2017-07-21
星球大战外传:侠盗一号/Rogue.One.2016.HDRip.AVC.ExKinoRay.mkv 2.35 GB 2017-07-12
星球大战外传:侠盗一号/Rogue.One.2016.1080p.3D.BluRay.Half-SBS.DTS.x264.HuN-TRiNiTY 15.58 GB 2017-07-11
星球大战外传:侠盗一号/星球大战外传:侠盗一号.Rogue.One.2016.1080p.BluRay.x264-中英双字-MP4BA 4.15 GB 2017-07-11
星球大战外传:侠盗一号/Rogue.One.2016.FRENCH.720p.BluRay.x264-VENUE.mkv 5.46 GB 2017-07-11
星球大战外传:侠盗一号/Rogue.2016.TS.avi 1.37 GB 2017-07-09
星球大战外传:侠盗一号/[nextorrent.net] Rogue.One.2016.FRENCH.BRRiP.MD.XViD-STVFRV.avi 1.28 GB 2017-07-06
星球大战外传:侠盗一号/Rogue.One.2016.1080p.BluRay.x264-SPARKS[EtHD] 9.84 GB 2017-07-06
星球大战外传:侠盗一号/Rogue.One.(2016).BDRip.x264.AFM.mkv 2.89 GB 2017-06-30
星球大战外传:侠盗一号/Rogue One A Star Wars Story 2016 HDTS x264 AC3-Garmin[SN] 2.25 GB 2017-06-30
星球大战外传:侠盗一号/Rogue.One.2016_HDRip__[scarabey.org].avi 1.45 GB 2017-06-30
星球大战外传:侠盗一号/Rogue.One.(2016).BDRip.x264.AFM.mkv 2.17 GB 2017-06-30
星球大战外传:侠盗一号/Rogue.One.2016.720p.BluRay.DTS.x264.HUN-TERACOD 14.99 GB 2017-06-30
星球大战外传:侠盗一号/Rogue.One.2016.BluRay.1080p.x264.DTS-HD.MA.7.1-HDChina 24.47 GB 2017-06-30
星球大战外传:侠盗一号/Rogue One. A Star Wars Story (2016) DVD5 [BD-DVD] 4.37 GB 2017-06-29
星球大战外传:侠盗一号/Rogue.One.(2016).BDRip.x264.AFM.mkv 2.83 GB 2017-06-29
星球大战外传:侠盗一号/Rogue One - A Star Wars Story 2016 BluRay Remux AVC DTSHD7.1 -DDR 37.67 GB 2017-06-29
星球大战外传:侠盗一号/Rogue One A Star Wars Story (2016) HEVC 1080p 3D-ab.mkv 8.53 GB 2017-06-29
星球大战外传:侠盗一号/Rogue One A Star Wars Story 2016 HDTS x264 AC3-Garmin.[PRiME] 2.25 GB 2017-06-29
星球大战外传:侠盗一号/Rogue.one.2016.1080p-dual-lat.mp4 2.05 GB 2017-06-29
星球大战外传:侠盗一号/Rogue.One.2016.HDRip-AVC.and77200.mkv 3.25 GB 2017-06-29
星球大战外传:侠盗一号/Rogue.One (2016) YG 1.32 GB 2017-06-29
星球大战外传:侠盗一号/Rogue One.(2016).DBRemux.[2D3D].iso 43.72 GB 2017-06-29
星球大战外传:侠盗一号/Rogue One 2016 BRRip x264 720p-NPW[1337x][SN] 3.08 GB 2017-06-28
星球大战外传:侠盗一号/Rogue.One.A.Star.Wars.Story.2016.1080p.HEVCCLUB.mkv 10.83 GB 2017-06-28
星球大战外传:侠盗一号/Rogue.One.A.Star.Wars.Story.2016.ENG.720p.HQHDTS.x264.AC3-PolishQuality 2.86 GB 2017-06-28
星球大战外传:侠盗一号/Rogue.One.2016.1080p.BluRay.x264.DTS-HD.MA.7.1-FGT 13.23 GB 2017-06-28
星球大战外传:侠盗一号/Rogue One 2016 1080p 3D Multi-BluRay Half-OU x264 DTS-JYK (1).mkv 7.39 GB 2017-06-27
星球大战外传:侠盗一号/[SeeHD.com]星球大战外传:侠盗一号(大陆公映版国英双语).Rogue One A Star Wars Story.2016.WEB-DL.X264.AAC.1080P-SeeHD 2.19 GB 2017-06-27
星球大战外传:侠盗一号/Rogue.One.2016.720p.BRRip.x264.AAC-ETRG 1002.59 MB 2017-06-27
星球大战外传:侠盗一号/RogueOne(2016)3D-halfOU(Ash61).mkv 8.56 GB 2017-06-27
星球大战外传:侠盗一号/Rogue.One.(2016).HDRip.x264.AFM.mkv 1.99 GB 2017-06-27
星球大战外传:侠盗一号/Rogue.One.2016.1080p.BluRay.DTS.Rus.Ukr.Eng.HDCLUB.mkv 22.06 GB 2017-06-27
星球大战外传:侠盗一号/Rogue One A Star Wars Story (2016) BRRip.XviD.AC3-EVO 796.68 MB 2017-06-27
星球大战外传:侠盗一号/Rogue.One.2016.BONUS.DISC.1080p.BluRay.AVC.DD2.0-FGT 19.09 GB 2017-06-27
星球大战外传:侠盗一号/Изгой-один_Звёздные войны. Истории_Rogue One_A Star Wars Story.2016.BDRip.H.264.720p.NNMClub.mkv 2.89 GB 2017-06-26
星球大战外传:侠盗一号/Rogue One A Star Wars Story 2016 HDTS UN-WATERMARKED. NAKRO 2.03 GB 2017-06-26
星球大战外传:侠盗一号/Rogue.One.(2016).1080p.BDRip.Org.BD.{Eng.5.1}.-~{[email protected]}~- 4.20 GB 2017-06-26
星球大战外传:侠盗一号/Rogue One 2016 1080p BluRay x263 DTS-JYK 3.21 GB 2017-06-26
星球大战外传:侠盗一号/Rogue.one.2016.PLDUB.BRrip.XviD.MP3-MAXX 992.17 MB 2017-06-26
星球大战外传:侠盗一号/Rogue.One.2016.BDRip.XviD.HUN-BIG 1.91 GB 2017-06-26
星球大战外传:侠盗一号/Rogue.One.2016.BDRip.XviD.HUN-BIG 1.91 GB 2017-06-26
星球大战外传:侠盗一号/Rogue.One.2016.720p.BRRip.XviD.AC3-RARBG 4.17 GB 2017-06-26
星球大战外传:侠盗一号/Rogue.One.2016.BDRip.1080p.TS.mkv 10.20 GB 2017-06-25
星球大战外传:侠盗一号/Rogue One A Star Wars Story 2016 BluRa x264-LOL 751.05 MB 2017-06-25
星球大战外传:侠盗一号/[AgusiQ-TorrentS.pl] Rogue.One.2016.PLDUB.720p.BluRay-K12 [AgusiQ] 5.60 GB 2017-06-25
星球大战外传:侠盗一号/Rogue.One-A.Star.Wars.Story.2016.HDCAM.AC3.2.0.x264.-BDP 1.86 GB 2017-06-25
星球大战外传:侠盗一号/Rogue.One.2016.1080p.3D.BluRay.AVC.DTS-HD.MA.7.1-FGT 42.75 GB 2017-06-25
星球大战外传:侠盗一号/Rogue.One.A.Star.Wars.Story[Edwards2016]byKenzo[dvd9].iso 6.97 GB 2017-06-25
星球大战外传:侠盗一号/Rogue.One.A.Star.Wars.Story.2016.BDRip.795MB.Loc.MegaPeer.avi 795.20 MB 2017-06-24
星球大战外传:侠盗一号/Rogue.One.2016.D.HDRip.21OOMB.avi 2.05 GB 2017-06-24
星球大战外传:侠盗一号/Rogue.One.2016.720p.BluRay.x264-SPARKS.mkv 6.56 GB 2017-06-24
星球大战外传:侠盗一号/Rogue.One.2016.720p.BluRay.x264-SPARKS 6.61 GB 2017-06-24
星球大战外传:侠盗一号/Rogue.One.A.Star.Wars.Story.2016.BDRip.795MB.MegaPeer 797.10 MB 2017-06-24
星球大战外传:侠盗一号/Rogue.One.2016.BDRip.XviD.HUN-BIG 1.91 GB 2017-06-24
星球大战外传:侠盗一号/Rogue.One.2016.1080p.BluRay.x264-tapochek.net.mkv 10.21 GB 2017-06-24
星球大战外传:侠盗一号/Rogue One (2016)1080p BluRay x264 AAC AC3.mkv 4.64 GB 2017-06-24
星球大战外传:侠盗一号/[nextorrent.net] Rogue.One.2016.MULTi.1080p.BluRay.x264-VENUE.mkv 10.93 GB 2017-06-24
星球大战外传:侠盗一号/Rogue.One.A.Star.Wars.Story.2016.iTALiAN.MD.HDCAM.XviD-DDLV[MT].avi 1.70 GB 2017-06-24
星球大战外传:侠盗一号/Rogue.One.A.Star.Wars.Story.2016.NEW.HDTS.700MB.ShAaNiG.mkv 700.72 MB 2017-06-23
星球大战外传:侠盗一号/Rogue.One.2016.3D.BGLng.mkv 20.59 GB 2017-06-23
星球大战外传:侠盗一号/Rogue one a star wars story 2016.avi 1.98 GB 2017-06-23
星球大战外传:侠盗一号/Rogue One 2016 720p BRRip 950 MB - iExTV.mp4 951.36 MB 2017-06-23
星球大战外传:侠盗一号/Rogue.One.2016.RETAiL.BDRiP.x264.HuN-HyperX 1.63 GB 2017-06-22
星球大战外传:侠盗一号/Rogue.One(2016)1080p.mkv 22.06 GB 2017-06-22
星球大战外传:侠盗一号/Rogue.One.2016.D.HDRip.7OOMB_KOSHARA.avi 699.36 MB 2017-06-22
星球大战外传:侠盗一号/Rogue.One.2016_HDRip_[scarabey.org].avi 797.18 MB 2017-06-22
星球大战外传:侠盗一号/Rogue.One.A.Star.Wars.Story.2016.BDRip-AVC.and77200.mkv 3.53 GB 2017-06-22
星球大战外传:侠盗一号/Rogue One A Star Wars Story 2016 720p BrRip x264 - RARBG 704.18 MB 2017-06-22
星球大战外传:侠盗一号/Rogue.One.A.Star.Wars.Story.2016.Trailers.DCPRip.2k.DUB 1.39 GB 2017-06-22
星球大战外传:侠盗一号/Rogue one - A Stars Wars Story - 2016 - HDTS - 900MB - x264 - Makintos13.mkv 897.48 MB 2017-06-22
星球大战外传:侠盗一号/Rogue One (2016) 720p 5.1ch BRRip x264 AAC - [GeekRG] 1.42 GB 2017-06-21
星球大战外传:侠盗一号/Rogue_One.2016.BDRip.720p.WazZzuP.mkv 12.65 GB 2017-06-21
星球大战外传:侠盗一号/Rogue.One.2016.720p.BRRip.x264.AC3-ABG 2.76 GB 2017-06-21
星球大战外传:侠盗一号/Rogue.One.2016.COMPLETE.BLURAY-LAZERS [NO RAR] 42.99 GB 2017-06-21
星球大战外传:侠盗一号/Rogue.One.2016.D.BDRip.1O8Op_KOSHARA.mkv 10.76 GB 2017-06-20
星球大战外传:侠盗一号/Rogue.One.2016.720p_BDRip_[scarabey.org].mkv 5.59 GB 2017-06-20
星球大战外传:侠盗一号/Rogue One A Star Wars Story 2016 720p BrRip x264 - CtrlHD 707.46 MB 2017-06-20
星球大战外传:侠盗一号/Rogue.One.2016.FRENCH.720p.BluRay.x264-VENUE 5.46 GB 2017-06-20
星球大战外传:侠盗一号/Star Wars Rogue One 2016 812.00 MB 2017-06-20
星球大战外传:侠盗一号/[BEST-TORRENTY.PL] Rogue One 2016 PLDUB MD BRRip XviD-KiT 1.37 GB 2017-06-19
星球大战外传:侠盗一号/Rogue.One.2016.1080p.BluRay.x264-SPARKS.mkv 9.84 GB 2017-06-19
星球大战外传:侠盗一号/Rogue.One.2016.1080p.3D.BluRay.Half-SBS.x264.DTS-HD.MA.7.1.TtRG 19.28 GB 2017-06-19
星球大战外传:侠盗一号/Rogue One 2016 BDRip 1080p Ita Eng x265-NAHOM 2.88 GB 2017-06-19
星球大战外传:侠盗一号/Rogue One A Star Wars Story 2016 BluRay 1080p DTS x264_Tomtaki7777.mkv 4.75 GB 2017-06-19
星球大战外传:侠盗一号/Rogue.One-A.Star.Wars.Story.3D.2016.DTS.ITA.ENG.Half.SBS.1080p.BluRay.x264-BLUWORLD.mkv 13.29 GB 2017-06-18
星球大战外传:侠盗一号/Rogue One 2016 1080p BluRay Kor Eng Audio x264-[ENTER].mkv 2.68 GB 2017-06-17
星球大战外传:侠盗一号/Rogue.One.(2016).BDRip.x264.Rus.Eng.AFM.mkv 3.28 GB 2017-06-17
星球大战外传:侠盗一号/Rogue.One.2016.BluRay.720p.x264.DTS-HDChina[EtHD] 8.16 GB 2017-06-17
星球大战外传:侠盗一号/RogueOne(2016)3D-halfOU(Ash61)iTunes 8.32 GB 2017-06-17
星球大战外传:侠盗一号/Rogue.One.2016.BRRip.XviD.AC3-EVO 1.55 GB 2017-06-16
星球大战外传:侠盗一号/Rogue.One.2016.BRRip.XviD.AC3-EVO 1.55 GB 2017-06-15
星球大战外传:侠盗一号/Rogue.One.2016.Lic.BDRip.1080p.ExKinoRay.mkv 15.24 GB 2017-06-15
星球大战外传:侠盗一号/Rogue.One.2016.1080p.BluRay.x264-tapochek.net.mkv 10.21 GB 2017-06-12
星球大战外传:侠盗一号/[www.Auratorrent.pl]Rogue.One.A.Star.Wars.Story.2016.PLSUBBED.BDRip.XviD-NoGrp 1.40 GB 2017-06-12
星球大战外传:侠盗一号/Rogue.One.2016.FRENCH.1080p.BluRay.x264.AC3-PrXL 4.17 GB 2017-06-12
星球大战外传:侠盗一号/Rogue One - A Star Wars Story (2016) BDRip 2.80 GB 2017-06-11
星球大战外传:侠盗一号/[ www.torrenting.me ] - Rogue One A Star Wars Story 2016 HDCAM UnKnOwN 1.58 GB 2017-06-11
星球大战外传:侠盗一号/Rogue.One.2016.720p.BRRip.AAC.[A.Release.Lounge.H264] 1.63 GB 2017-06-11
星球大战外传:侠盗一号/Rogue.One.2016.BDRip.1080p.ExKinoRay.mkv 21.43 GB 2017-06-10
星球大战外传:侠盗一号/Rogue.One.2016.720p.3D.BluRay.Half-SBS.DTS.x264-SSJ 5.29 GB 2017-06-10
星球大战外传:侠盗一号/Rogue.One.A.Star.Wars.Story.2016.D.iT.BDRip.1.46Gb 1.46 GB 2017-06-09
星球大战外传:侠盗一号/Rogue.S01E08.HDTV.Subtitulado.Esp.SC.avi 350.68 MB 2017-06-07
星球大战外传:侠盗一号/Rogue.One.2016.FRENCH.BDRip.XviD-EXTREME.avi 1.37 GB 2017-06-05
星球大战外传:侠盗一号/Rogue One A Star Wars Story (2016) BRRip.XviD.AC3-EVO 793.93 MB 2017-06-03
星球大战外传:侠盗一号/Rogue.One.A.Star.Wars.Story.2016.HDTS.x264.AC3.THEATER-Zakky.mkv 1.49 GB 2017-06-03
星球大战外传:侠盗一号/Rogue.One.2016.720p.BluRay.H264.AAC-RARBG 1.63 GB 2017-06-01
星球大战外传:侠盗一号/星球大战外传:侠盗一号.Rogue.One.2016.1080p.BluRay.x264-中英双字-RARBT 4.11 GB 2017-06-01
星球大战外传:侠盗一号/Rogue.One.2016.Bluray.720P.WWW.MP4D.COM 3.36 GB 2017-06-01
星球大战外传:侠盗一号/Rogue.One.2016.INTERNAL.1080p.BluRay.CRF.x264-SAPHiRE[rarbg] 21.53 GB 2017-06-01
星球大战外传:侠盗一号/Rogue.One.2016.720p.BRRip.X264.AC3.900MB.Makintos13.mkv 897.42 MB 2017-05-31
星球大战外传:侠盗一号/Rogue.One.A.Star.Wars.Story.2016.iTALiAN.MD.BDRip.XviD-FLASH.avi 1.80 GB 2017-05-30
星球大战外传:侠盗一号/Rogue.One.2016.720p.BDRip.LATiNO.ENG.XviD.AC3 4.37 GB 2017-05-30
星球大战外传:侠盗一号/Rogue.One.2016.1080p.BluRay.DTS.x264-DON[EtHD] 20.05 GB 2017-05-30
星球大战外传:侠盗一号/Rogue.One.2016.BRRip.XviD.AC3-EVO 1.55 GB 2017-05-30
星球大战外传:侠盗一号/Rogue One.2016.BDRip.1080p.mkv 18.25 GB 2017-05-29
星球大战外传:侠盗一号/Rogue.S01E10.REPACK.HDTV.XviD-AFG 444.16 MB 2017-05-29
星球大战外传:侠盗一号/Rogue.one.2016.1080p.bluray.x264-NBY-[www.moviezplanet.org].mkv 2.30 GB 2017-05-29
星球大战外传:侠盗一号/Rogue.One.2016.BONUS.DISC.1080p.BluRay.x264.DD2.0-FGT 5.65 GB 2017-05-29
星球大战外传:侠盗一号/Rogue.One.2016.Bluray.1080p.DTS-HD-7.1.x264-Grym 19.75 GB 2017-05-29
星球大战外传:侠盗一号/Rogue.One.A.Star.Wars.Story.2016.BRRip.x264.AC3-FRWL[PRiME] 1.81 GB 2017-05-29
星球大战外传:侠盗一号/Rogue.one.2016.720p.bluray.x264.sparks.Dub 1.24 GB 2017-05-29
星球大战外传:侠盗一号/Rogue.One.(2016).BDRip.x264.AFM.mkv 4.12 GB 2017-05-29
星球大战外传:侠盗一号/Rogue One (2016) 480p 2ch BRRip x264 AAC - [GeekRG] 776.23 MB 2017-05-29
星球大战外传:侠盗一号/Rogue One - A Star Wars Story 2016 (1080p x265 LQ Joy).mkv 1.05 GB 2017-05-29
星球大战外传:侠盗一号/Rogue.One.2016.1080p.3D.BluRay.Half-OU.x264.DTS-HD.MA.7.1-FGT 22.41 GB 2017-05-28
星球大战外传:侠盗一号/Rogue.One.2016.D.BDRip.1O8Op.mkv 10.76 GB 2017-05-28
星球大战外传:侠盗一号/Rogue One A Star Wars Story 2016 720p BrRip x264 - iFT 706.41 MB 2017-05-28
星球大战外传:侠盗一号/Rogue One A Star Wars Story (2016) BDRip 1080p [HEVC].mkv 5.74 GB 2017-05-27
星球大战外传:侠盗一号/Rogue One 2016 720p BRRip 950 MB - iExTV 951.41 MB 2017-05-27
星球大战外传:侠盗一号/Rogue.One.2016.BDRip(AVC).OlLanDGroup.mkv 1.46 GB 2017-05-27
星球大战外传:侠盗一号/[nextorrent.net] Rogue.One.2016.BDRip.VOSTFR.PROPER.x264-EXTREME.mkv 735.34 MB 2017-05-27
星球大战外传:侠盗一号/[ www.torrenting.me ] - Rogue.One.2016.DVDRip.XviD-EVO 1016.78 MB 2017-05-25
星球大战外传:侠盗一号/Rogue.One.2016.1080p.mkv 9.84 GB 2017-05-25
星球大战外传:侠盗一号/Rogue.One.(2016).BDRip.x264.Rus.AFM.mkv 3.04 GB 2017-05-24
星球大战外传:侠盗一号/Rogue One A Star Wars Story 2016 HD-TS x264-CPG 2.23 GB 2017-05-24
星球大战外传:侠盗一号/Rogue One A Star Wars Story 2016 720p BrRip x264 - RARBG 707.44 MB 2017-05-23
星球大战外传:侠盗一号/Изгой-один. Звёздные войны. Истории_Rogue One A Star Wars Story (2016) BDRip 1080p_60fps_Локализованная версия_Лицензия.mkv 17.46 GB 2017-05-23
星球大战外传:侠盗一号/Rogue One A Star Wars Story 2016 720p BrRip x264 - AFG 707.46 MB 2017-05-23
星球大战外传:侠盗一号/Rogue.one.2016.1080p.bluray.x265-NBY-[www.moviezplanet.org].mkv 1.40 GB 2017-05-22
星球大战外传:侠盗一号/Rogue.One.A.Star.Wars.Story.2016.BDRip.1.46Gb.Loc.MegaPeer.avi 1.46 GB 2017-05-22
星球大战外传:侠盗一号/[AgusiQ-TorrentS.pl] Rogue.One.Star.Wars.2016.PLDUB.MD.KiT [jans12] 1.37 GB 2017-05-19
星球大战外传:侠盗一号/Rogue One A Star Wars Story 2016 BluRay x264 HD-AFG 751.46 MB 2017-05-18
星球大战外传:侠盗一号/Rogue.One.2016.MULTi.1080p.BluRay.x264-VENUE 10.93 GB 2017-05-17
星球大战外传:侠盗一号/Rogue.One.A.Star.Wars.Story.2016.BDRip-AVC.R.G.Resident.mkv 2.91 GB 2017-05-07
星球大战外传:侠盗一号/Rogue.One.A.Star.Wars.Story.2016.D.iT.BDRip 2.12 GB 2017-04-29
星球大战外传:侠盗一号/RogueOne(2016)3D-halfOU(Ash61)iTunes.mkv 8.32 GB 2017-04-29
星球大战外传:侠盗一号/Rogue One (2016) 1080p 5.1ch BRRip x264 AAC - [GeekRG] 3.26 GB 2017-04-29
星球大战外传:侠盗一号/Rogue.One.A.Star.Wars.Story.2016.1080p_HEVCCLUB.mkv 11.07 GB 2017-04-29
星球大战外传:侠盗一号/Rogue.one.2016.1080p-dual-cast.mp4 2.06 GB 2017-04-27
星球大战外传:侠盗一号/Rogue One (2016) 1080p BluRay [Cyro.se] 2.02 GB 2017-04-27
星球大战外传:侠盗一号/Rogue One (2016) BDRip 1080p [UKR_ENG] [Hurtom].mkv 15.01 GB 2017-04-27
星球大战外传:侠盗一号/Rogue.One.2016.576p.BRRip.x264.AC3-HUD 2.30 GB 2017-04-27
星球大战外传:侠盗一号/Rogue.One.A.Star.Wars.Story.2016.BDRip-AVC.and77200.mkv 3.59 GB 2017-04-27
星球大战外传:侠盗一号/Rogue One (2016) BDRip [ukr] [Hurtom].avi 2.18 GB 2017-04-27
星球大战外传:侠盗一号/Rogue One A Star Wars Story 2016 720p BrRip x264 - EVO 707.46 MB 2017-04-27
星球大战外传:侠盗一号/Rogue One (2016) BluRay 720p x264 920MB (nItRo)-XpoZ 923.17 MB 2017-04-27
星球大战外传:侠盗一号/[nextorrent.net] Rogue.One.A.Star.Wars.Story.2016.TRUEFRENCH.HDTS.MD.XviD-EXTREME.avi 1.36 GB 2017-04-27
星球大战外传:侠盗一号/Rogue.One.2016.1080p.Multisubs.BRRip.x264 2.55 GB 2017-04-26
星球大战外传:侠盗一号/Rogue.One.2016_HDRip___[scarabey.org].avi 2.12 GB 2017-04-26
星球大战外传:侠盗一号/Rogue.One.A.Star.Wars.Story.2016.BDRip.2.12Gb.MegaPeer 2.12 GB 2017-04-11
星球大战外传:侠盗一号/Rogue.One.2016.BDRip.720p.ExKinoRay.mkv 7.39 GB 2017-04-10
星球大战外传:侠盗一号/Rogue.One.A.Star.Wars.Story.2016.HDCAM.AAC.2CH.x264.AVC-GunGravE[PRiME] 1018.54 MB 2017-04-10
星球大战外传:侠盗一号/Rogue One 2016 BRRip Latino.mkv 1.58 GB 2017-04-10
星球大战外传:侠盗一号/Rogue One (2016) [1080p] [YTS.AG] 2.05 GB 2017-04-10
星球大战外传:侠盗一号/Rogue.One.2016.BRRip.XviD.AC3-EVO 1.55 GB 2017-04-09
星球大战外传:侠盗一号/Rogue.One.2016.720p_BDRip_lv_r5_[scarabey.org].mkv 5.92 GB 2017-04-09
星球大战外传:侠盗一号/Rogue.One.2016.1080p.BluRay.AC3.MkvCage.mkv 3.31 GB 2017-04-08
星球大战外传:侠盗一号/Rogue.One.2016_HDRip_lv__[scarabey.org].avi 1.45 GB 2017-04-08
星球大战外传:侠盗一号/Rogue.One.(2016).BDRip.x264.AFM.mkv 4.06 GB 2017-04-08
星球大战外传:侠盗一号/Rogue.One.2016.BDRip.1080p.ExKinoRay.mkv 21.43 GB 2017-04-07
星球大战外传:侠盗一号/Rogue.One.A.Star.Wars.Story.2016.iTA-ENG.AC3.BluRay.720p.x264-iCV-CreW.mkv 1.74 GB 2017-04-07
星球大战外传:侠盗一号/[ www.torrenting.me ] - Rogue.One.2016.BDRip.x264-SPARKS 735.25 MB 2017-04-04
星球大战外传:侠盗一号/Rogue.One.2016.1080p.10bit.BluRay.7.1.x265.HEVC-MZABI.mkv 4.69 GB 2017-04-03
星球大战外传:侠盗一号/Rogue.One.2016.1080p.BluRay.x264-Zeus 2.15 GB 2017-04-03
星球大战外传:侠盗一号/Rogue_One.2016.BDRip.720p.WazZzuP.mkv 11.40 GB 2017-04-03
星球大战外传:侠盗一号/Rogue.One.2016.720p.BRRip.AAC.[2CH].H.265.[HEVC]-GunGravE.mkv 854.92 MB 2017-04-03
星球大战外传:侠盗一号/Rogue One (2016) 1080p BrRip x264 - VPPV 3.17 GB 2017-03-22
星球大战外传:侠盗一号/星球大战外传:侠盗一号.Rogue.One.A.Star.Wars.Story.2016.HD-TS.x264-中英双字-RARBT 1.48 GB 2017-03-18
星球大战外传:侠盗一号/Rogue.One.A.Star.Wars.Story.2016.HD-TS.x264-CPG[PRiME] 2.23 GB 2017-03-14
星球大战外传:侠盗一号/Rogue One A Star Wars Story 2016 720p BrRip x264 - PLAYNOW 707.46 MB 2017-03-09
星球大战外传:侠盗一号/Rogue One A Star Wars Story 2016 BluRay x264-AFG 751.73 MB 2017-03-09
星球大战外传:侠盗一号/Rogue.One.A.Star.Wars.Story.2016.ENG.720p.HQHDTS.x264.AC3-PolishQuality 2.86 GB 2017-03-08
星球大战外传:侠盗一号/Rogue.One.A.Star.Wars.Story.2016.HDTS.x264-VAiN 1.50 GB 2017-03-07
星球大战外传:侠盗一号/Rogue One A Star Wars Story 2016 720p BrRip x264 - BATV 703.18 MB 2017-02-25
星球大战外传:侠盗一号/Rogue One A Star Wars Story (2016) TSPROPER 2.08 GB 2017-02-14
星球大战外传:侠盗一号/Rogue.One.A.Star.Wars.Story.2016.720p.HDCAM.x264.RoHardSubbed-FOBiz 1.24 GB 2017-01-30
星球大战外传:侠盗一号/Rogue One A Star Wars Story 2016 BluRay x264 HD-AFG 751.08 MB 2017-01-27
星球大战外传:侠盗一号/星球大战外传:侠盗一号Rogue One A Star Wars Story 2016 x264 HDTS AAC(Deflickered)-DDR-RMVB.mkv 1.86 GB 2017-01-24
星球大战外传:侠盗一号/Rogue.2016.TS.Rustorrents.avi 1.37 GB 2016-12-30
星球大战外传:侠盗一号/Rogue.One.A.Star.Wars.Story.2016.ENG.720p.HQHDTS.x264.AC3-PolishQuality[PRiME] 2.86 GB 2016-12-27
星球大战外传:侠盗一号/Rogue One A Star Wars Story 2016 x264 HDTS AAC(Deflickered)-DDR 1.38 GB 2016-12-27
星球大战外传:侠盗一号/Rogue One A Star Wars Story 2016 HDCAM UnKnOwN 1.58 GB 2016-12-27

如何下载该资源

通常情况下,如果你的电脑中安装了下载工具,点击立即下载按钮就会自动的开始下载。

如果不奏效,那复制新打开的窗口链接,手动打开下载工具粘贴磁力链接,之后开始下载。

下载工具

μTorrent BitComet 迅雷 Vuze

如何在线看电影

在线看电影请复制磁力链接,使用115离线下载百度网盘离线下载迅雷边下边看